You are listening to:
KLAX Final App (North/South) - Los Angeles, California, United States

KLAX 060953Z 23008KT 10SM FEW008 BKN012 18/16 A2993 RMK AO2 SLP131 T01780156

If stream doesn't start automatically press the play button
If stream stops then reload player then press play